createdAt,value
2018-12-09T00:00:11.891Z,82.69
2018-12-09T00:01:11.880Z,83.09
2018-12-09T00:02:11.868Z,84.22
2018-12-09T00:03:11.858Z,83.61
2018-12-09T00:04:11.845Z,83.81
2018-12-09T00:05:11.833Z,83.71
2018-12-09T00:06:11.822Z,84.43
2018-12-09T00:07:11.810Z,86.31
2018-12-09T00:08:11.799Z,86.31
2018-12-09T00:09:11.790Z,86.73
2018-12-09T00:10:11.779Z,87.13
2018-12-09T00:11:11.769Z,87.85
2018-12-09T00:12:11.755Z,88.57
2018-12-09T00:13:11.747Z,88.61
2018-12-09T00:14:11.734Z,89.33
2018-12-09T00:15:11.723Z,89.02
2018-12-09T00:16:11.712Z,88.61
2018-12-09T00:17:11.703Z,90.15
2018-12-09T00:18:11.694Z,90.05
2018-12-09T00:19:11.680Z,89.53
2018-12-09T00:20:11.667Z,89.64
2018-12-09T00:21:11.661Z,90.15
2018-12-09T00:22:11.646Z,89.74
2018-12-09T00:23:11.637Z,89.02
2018-12-09T00:24:11.626Z,89.02
2018-12-09T00:25:11.615Z,89.84
2018-12-09T00:26:11.602Z,90.86
2018-12-09T00:27:11.592Z,89.94
2018-12-09T00:28:11.582Z,89.84
2018-12-09T00:29:11.570Z,88.81
2018-12-09T00:30:11.561Z,89.64
2018-12-09T00:31:11.548Z,88.51
2018-12-09T00:32:11.537Z,90.56
2018-12-09T00:33:11.525Z,90.86
2018-12-09T00:34:11.517Z,90.91
2018-12-09T00:35:11.503Z,91.22
2018-12-09T00:36:11.495Z,91.52
2018-12-09T00:37:11.483Z,93.68
2018-12-09T00:38:11.471Z,93.99
2018-12-09T00:39:11.460Z,94.61
2018-12-09T00:40:11.450Z,94.19
2018-12-09T00:41:11.440Z,95.01
2018-12-09T00:42:11.427Z,95.53
2018-12-09T00:43:11.418Z,95.88
2018-12-09T00:44:11.406Z,96.08
2018-12-09T00:45:11.395Z,96.29
2018-12-09T00:46:11.388Z,96.75
2018-12-09T00:47:11.373Z,96.75
2018-12-09T00:48:11.362Z,97.26
2018-12-09T00:49:11.358Z,97.26
2018-12-09T00:50:11.341Z,96.95
2018-12-09T00:51:11.329Z,97.36
2018-12-09T00:52:11.321Z,96.64
2018-12-09T00:53:11.308Z,97.16
2018-12-09T00:54:11.295Z,96.85
2018-12-09T00:55:11.285Z,96.07
2018-12-09T00:56:11.273Z,96.48
2018-12-09T00:57:11.262Z,96.54
2018-12-09T00:58:11.251Z,95.00
2018-12-09T00:59:11.243Z,95.41
2018-12-09T01:00:11.230Z,95.10
2018-12-09T01:01:11.221Z,93.67
2018-12-09T01:02:11.210Z,93.56
2018-12-09T01:03:11.198Z,93.87
2018-12-09T01:04:11.187Z,93.97
2018-12-09T01:05:11.174Z,92.43
2018-12-09T01:06:11.166Z,93.25
2018-12-09T01:07:11.152Z,92.12
2018-12-09T01:08:11.143Z,92.54
2018-12-09T01:09:11.133Z,92.23
2018-12-09T01:10:11.122Z,93.05
2018-12-09T01:11:11.111Z,93.15
2018-12-09T01:12:11.098Z,92.84
2018-12-09T01:13:11.089Z,91.92
2018-12-09T01:14:11.075Z,91.61
2018-12-09T01:15:11.065Z,90.38
2018-12-09T01:16:11.053Z,90.17
2018-12-09T01:17:11.044Z,90.85
2018-12-09T01:18:11.031Z,87.98
2018-12-09T01:19:11.021Z,88.39
2018-12-09T01:20:11.009Z,88.07
2018-12-09T01:21:10.999Z,89.20
2018-12-09T01:22:10.987Z,89.62
2018-12-09T01:23:10.979Z,86.74
2018-12-09T01:24:10.967Z,86.64
2018-12-09T01:25:10.955Z,86.74
2018-12-09T01:26:10.946Z,86.33
2018-12-09T01:27:10.933Z,87.46
2018-12-09T01:28:10.924Z,87.56
2018-12-09T01:29:10.912Z,87.77
2018-12-09T01:30:10.901Z,86.23
2018-12-09T01:31:10.892Z,86.43
2018-12-09T01:32:10.879Z,84.55
2018-12-09T01:33:10.869Z,84.44
2018-12-09T01:34:10.857Z,86.29
2018-12-09T01:35:10.845Z,86.43
2018-12-09T01:36:10.836Z,87.26
2018-12-09T01:37:10.827Z,85.62
2018-12-09T01:38:10.812Z,84.49
2018-12-09T01:39:10.805Z,85.00
2018-12-09T01:40:10.792Z,85.41
2018-12-09T01:41:10.782Z,84.49
2018-12-09T01:42:10.770Z,83.97
2018-12-09T01:43:10.759Z,85.20
2018-12-09T01:44:10.754Z,84.49
2018-12-09T01:45:10.735Z,83.66
2018-12-09T01:46:10.728Z,82.50
2018-12-09T01:47:10.716Z,84.34
2018-12-09T01:48:10.706Z,81.78
2018-12-09T01:49:10.692Z,80.65
2018-12-09T01:50:10.682Z,82.25
2018-12-09T01:51:10.670Z,81.64
2018-12-09T01:52:10.660Z,83.63
2018-12-09T01:53:10.652Z,81.78
2018-12-09T01:54:10.640Z,82.29
2018-12-09T01:55:10.629Z,84.34
2018-12-09T01:56:10.621Z,81.47
2018-12-09T01:57:10.608Z,81.26
2018-12-09T01:58:10.598Z,82.18
2018-12-09T01:59:10.584Z,81.57
2018-12-09T02:00:10.573Z,83.73
2018-12-09T02:01:10.561Z,81.88
2018-12-09T02:02:10.552Z,81.88
2018-12-09T02:03:10.540Z,80.75
2018-12-09T02:04:10.533Z,80.96
2018-12-09T02:05:10.522Z,80.65
2018-12-09T02:06:10.511Z,81.23
2018-12-09T02:07:10.495Z,81.26
2018-12-09T02:08:10.489Z,81.78
2018-12-09T02:09:10.474Z,80.65
2018-12-09T02:10:10.464Z,80.45
2018-12-09T02:11:10.453Z,81.88
2018-12-09T02:12:10.442Z,81.37
2018-12-09T02:13:10.431Z,79.69
2018-12-09T02:14:10.418Z,79.58
2018-12-09T02:15:10.408Z,80.40
2018-12-09T02:16:10.401Z,80.51
2018-12-09T02:17:10.386Z,79.99
2018-12-09T02:18:10.374Z,79.99
2018-12-09T02:19:10.363Z,80.51
2018-12-09T02:20:10.353Z,79.89
2018-12-09T02:21:10.340Z,80.71
2018-12-09T02:22:10.330Z,82.80
2018-12-09T02:23:10.319Z,80.24
2018-12-09T02:24:10.310Z,81.57
2018-12-09T02:25:10.299Z,80.75
2018-12-09T02:26:10.287Z,80.13
2018-12-09T02:27:10.274Z,80.75
2018-12-09T02:28:10.265Z,79.38
2018-12-09T02:29:10.253Z,78.97
2018-12-09T02:30:10.248Z,78.97
2018-12-09T02:31:10.233Z,79.38
2018-12-09T02:32:10.224Z,79.58
2018-12-09T02:33:10.211Z,80.92
2018-12-09T02:34:10.201Z,79.62
2018-12-09T02:35:10.187Z,79.21
2018-12-09T02:36:10.180Z,79.18
2018-12-09T02:37:10.165Z,79.11
2018-12-09T02:38:10.162Z,79.11
2018-12-09T02:39:10.150Z,80.85
2018-12-09T02:40:10.132Z,80.34
2018-12-09T02:41:10.123Z,80.85
2018-12-09T02:42:10.113Z,79.11
2018-12-09T02:43:10.102Z,78.70
2018-12-09T02:44:10.090Z,79.11
2018-12-09T02:45:10.080Z,79.01
2018-12-09T02:46:10.065Z,79.01
2018-12-09T02:47:10.055Z,81.06
2018-12-09T02:48:10.047Z,79.62
2018-12-09T02:49:10.037Z,79.76
2018-12-09T02:50:10.024Z,78.94
2018-12-09T02:51:10.012Z,80.03
2018-12-09T02:52:10.000Z,79.21
2018-12-09T02:53:09.990Z,78.19
2018-12-09T02:54:09.982Z,79.01
2018-12-09T02:55:09.971Z,79.93
2018-12-09T02:56:09.960Z,79.01
2018-12-09T02:57:09.946Z,79.73
2018-12-09T02:58:09.959Z,79.21
2018-12-09T02:59:09.926Z,79.73
2018-12-09T03:00:09.912Z,79.21
2018-12-09T03:01:09.906Z,80.13
2018-12-09T03:02:09.890Z,78.90
2018-12-09T03:03:09.880Z,78.19
2018-12-09T03:04:09.869Z,78.08
2018-12-09T03:05:09.857Z,78.08
2018-12-09T03:06:09.848Z,78.60
2018-12-09T03:07:09.835Z,77.36
2018-12-09T03:08:09.826Z,77.16
2018-12-09T03:09:09.812Z,77.47
2018-12-09T03:10:09.804Z,77.36
2018-12-09T03:11:09.795Z,78.28
2018-12-09T03:12:09.782Z,78.19
2018-12-09T03:13:09.770Z,78.90
2018-12-09T03:14:09.759Z,79.11
2018-12-09T03:15:09.747Z,77.57
2018-12-09T03:16:09.738Z,77.67
2018-12-09T03:17:09.727Z,77.98
2018-12-09T03:18:09.715Z,79.21
2018-12-09T03:19:09.706Z,79.41
2018-12-09T03:20:09.693Z,80.03
2018-12-09T03:21:09.683Z,79.04
2018-12-09T03:22:09.671Z,78.53
2018-12-09T03:23:09.660Z,78.39
2018-12-09T03:24:09.651Z,78.49
2018-12-09T03:25:09.639Z,78.39
2018-12-09T03:26:09.626Z,80.13
2018-12-09T03:27:09.617Z,79.32
2018-12-09T03:28:09.607Z,78.90
2018-12-09T03:29:09.596Z,79.73
2018-12-09T03:30:09.586Z,81.37
2018-12-09T03:31:09.575Z,81.81
2018-12-09T03:32:09.565Z,81.71
2018-12-09T03:33:09.550Z,82.02
2018-12-09T03:34:09.542Z,81.92
2018-12-09T03:35:09.529Z,81.71
2018-12-09T03:36:09.519Z,81.40
2018-12-09T03:37:09.509Z,82.23
2018-12-09T03:38:09.500Z,83.66
2018-12-09T03:39:09.485Z,82.64
2018-12-09T03:40:09.474Z,81.71
2018-12-09T03:41:09.474Z,82.23
2018-12-09T03:42:09.455Z,82.64
2018-12-09T03:43:09.441Z,83.25
2018-12-09T03:44:09.432Z,82.84
2018-12-09T03:45:09.423Z,82.74
2018-12-09T03:46:09.410Z,83.66
2018-12-09T03:47:09.401Z,83.66
2018-12-09T03:48:09.386Z,83.36
2018-12-09T03:49:09.376Z,84.49
2018-12-09T03:50:09.365Z,87.81
2018-12-09T03:51:09.365Z,86.16
2018-12-09T03:52:09.344Z,87.29
2018-12-09T03:53:09.331Z,87.91
2018-12-09T03:54:09.332Z,88.43
2018-12-09T03:55:09.309Z,87.03
2018-12-09T03:56:09.298Z,87.81
2018-12-09T03:57:09.287Z,88.63
2018-12-09T03:58:09.277Z,85.55
2018-12-09T03:59:09.264Z,86.58
2018-12-09T04:00:09.254Z,87.40
2018-12-09T04:01:09.248Z,89.35
2018-12-09T04:02:09.232Z,88.36
2018-12-09T04:03:09.222Z,88.57
2018-12-09T04:04:09.209Z,89.70
2018-12-09T04:05:09.198Z,90.11
2018-12-09T04:06:09.189Z,88.88
2018-12-09T04:07:09.176Z,90.63
2018-12-09T04:08:09.168Z,90.97
2018-12-09T04:09:09.158Z,92.21
2018-12-09T04:10:09.145Z,92.41
2018-12-09T04:11:09.132Z,91.49
2018-12-09T04:12:09.122Z,92.01
2018-12-09T04:13:09.112Z,92.62
2018-12-09T04:14:09.102Z,92.82
2018-12-09T04:15:09.089Z,92.21
2018-12-09T04:16:09.080Z,93.07
2018-12-09T04:17:09.069Z,93.59
2018-12-09T04:18:09.058Z,93.75
2018-12-09T04:19:09.102Z,93.54
2018-12-09T04:20:09.036Z,93.49
2018-12-09T04:21:09.022Z,92.77
2018-12-09T04:22:09.013Z,93.13
2018-12-09T04:23:09.005Z,93.96
2018-12-09T04:24:08.991Z,94.16
2018-12-09T04:25:08.979Z,94.06
2018-12-09T04:26:08.968Z,94.21
2018-12-09T04:27:08.959Z,94.31
2018-12-09T04:28:08.948Z,94.51
2018-12-09T04:29:08.938Z,93.38
2018-12-09T04:30:08.923Z,93.59
2018-12-09T04:31:08.921Z,94.31
2018-12-09T04:32:08.904Z,94.51
2018-12-09T04:33:08.898Z,94.41
2018-12-09T04:34:08.879Z,93.69
2018-12-09T04:35:08.870Z,94.31
2018-12-09T04:36:08.868Z,94.31
2018-12-09T04:37:08.849Z,93.90
2018-12-09T04:38:08.838Z,92.56
2018-12-09T04:39:08.832Z,92.05
2018-12-09T04:40:08.893Z,92.97
2018-12-09T04:41:08.805Z,92.56
2018-12-09T04:42:08.806Z,91.53
2018-12-09T04:43:08.784Z,91.53
2018-12-09T04:44:08.778Z,93.18
2018-12-09T04:45:08.762Z,93.79
2018-12-09T04:46:08.748Z,94.31
2018-12-09T04:47:08.738Z,95.13
2018-12-09T04:48:08.731Z,94.83
2018-12-09T04:49:08.820Z,94.51
2018-12-09T04:50:08.707Z,95.03
2018-12-09T04:51:08.696Z,95.55
2018-12-09T04:52:08.685Z,92.09
2018-12-09T04:53:08.671Z,92.71
2018-12-09T04:54:08.661Z,94.56
2018-12-09T04:55:08.657Z,95.73
2018-12-09T04:56:08.638Z,96.45
2018-12-09T04:57:08.630Z,96.87
2018-12-09T04:58:08.621Z,96.56
2018-12-09T04:59:08.605Z,94.70
2018-12-09T05:00:08.596Z,95.26
2018-12-09T05:01:08.586Z,93.93
2018-12-09T05:02:08.575Z,93.31
2018-12-09T05:03:08.567Z,93.72
2018-12-09T05:04:08.551Z,94.75
2018-12-09T05:05:08.542Z,94.85
2018-12-09T05:06:08.532Z,94.03
2018-12-09T05:07:08.520Z,94.75
2018-12-09T05:08:08.510Z,94.23
2018-12-09T05:09:08.505Z,93.82
2018-12-09T05:10:08.490Z,93.82
2018-12-09T05:11:08.478Z,93.93
2018-12-09T05:12:08.467Z,94.03
2018-12-09T05:13:08.456Z,94.28
2018-12-09T05:14:08.445Z,94.69
2018-12-09T05:15:08.439Z,94.69
2018-12-09T05:16:08.530Z,94.48
2018-12-09T05:17:08.409Z,93.76
2018-12-09T05:18:08.401Z,93.93
2018-12-09T05:19:08.388Z,93.20
2018-12-09T05:20:08.377Z,93.20
2018-12-09T05:21:08.366Z,93.51
2018-12-09T05:22:08.355Z,94.23
2018-12-09T05:23:08.446Z,94.44
2018-12-09T05:24:08.335Z,94.44
2018-12-09T05:25:08.324Z,94.79
2018-12-09T05:26:08.312Z,95.52
2018-12-09T05:27:08.304Z,96.03
2018-12-09T05:28:08.291Z,96.03
2018-12-09T05:29:08.279Z,95.97
2018-12-09T05:30:08.273Z,96.49
2018-12-09T05:31:08.257Z,96.49
2018-12-09T05:32:08.248Z,96.55
2018-12-09T05:33:08.238Z,96.85
2018-12-09T05:34:08.224Z,94.90
2018-12-09T05:35:08.215Z,94.79
2018-12-09T05:36:08.209Z,94.59
2018-12-09T05:37:08.195Z,94.79
2018-12-09T05:38:08.180Z,95.62
2018-12-09T05:39:08.172Z,95.88
2018-12-09T05:40:08.162Z,95.62
2018-12-09T05:41:08.147Z,96.13
2018-12-09T05:42:08.134Z,96.03
2018-12-09T05:43:08.124Z,95.20
2018-12-09T05:44:08.115Z,95.37
2018-12-09T05:45:08.102Z,95.37
2018-12-09T05:46:08.530Z,94.44
2018-12-09T05:47:08.082Z,94.23
2018-12-09T05:48:08.077Z,94.44
2018-12-09T05:49:08.061Z,95.06
2018-12-09T05:50:08.047Z,95.37
2018-12-09T05:51:08.037Z,95.67
2018-12-09T05:52:08.026Z,95.78
2018-12-09T05:53:08.021Z,95.47
2018-12-09T05:54:08.008Z,96.14
2018-12-09T05:55:07.992Z,96.05
2018-12-09T05:56:07.982Z,96.14
2018-12-09T05:57:07.971Z,96.45
2018-12-09T05:58:07.960Z,96.77
2018-12-09T05:59:07.950Z,95.22
2018-12-09T06:00:07.939Z,95.94
2018-12-09T06:01:07.928Z,96.45
2018-12-09T06:02:07.916Z,96.25
2018-12-09T06:03:07.904Z,96.25
2018-12-09T06:04:07.893Z,97.18
2018-12-09T06:05:07.883Z,96.97
2018-12-09T06:06:07.872Z,97.18
2018-12-09T06:07:07.861Z,97.53
2018-12-09T06:08:07.850Z,97.84
2018-12-09T06:09:07.844Z,97.53
2018-12-09T06:10:07.827Z,97.63
2018-12-09T06:11:07.816Z,97.74
2018-12-09T06:12:07.808Z,96.30
2018-12-09T06:13:07.796Z,96.05
2018-12-09T06:14:07.815Z,96.45
2018-12-09T06:15:07.783Z,95.73
2018-12-09T06:16:07.791Z,95.22
2018-12-09T06:17:07.751Z,93.78
2018-12-09T06:18:07.741Z,94.91
2018-12-09T06:19:07.735Z,95.73
2018-12-09T06:20:07.719Z,95.01
2018-12-09T06:21:07.707Z,95.33
2018-12-09T06:22:07.701Z,95.22
2018-12-09T06:23:07.685Z,95.73
2018-12-09T06:24:07.676Z,94.70
2018-12-09T06:25:07.663Z,94.60
2018-12-09T06:26:07.652Z,94.60
2018-12-09T06:27:07.641Z,94.40
2018-12-09T06:28:07.632Z,94.70
2018-12-09T06:29:07.620Z,94.29
2018-12-09T06:30:07.610Z,94.50
2018-12-09T06:31:07.597Z,95.42
2018-12-09T06:32:07.588Z,96.25
2018-12-09T06:33:07.576Z,96.56
2018-12-09T06:34:07.565Z,93.98
2018-12-09T06:35:07.554Z,94.60
2018-12-09T06:36:07.542Z,95.84
2018-12-09T06:37:07.532Z,95.42
2018-12-09T06:38:07.520Z,94.40
2018-12-09T06:39:07.511Z,94.29
2018-12-09T06:40:07.498Z,93.37
2018-12-09T06:41:07.489Z,93.98
2018-12-09T06:42:07.516Z,94.50
2018-12-09T06:43:07.466Z,95.22
2018-12-09T06:44:07.454Z,95.84
2018-12-09T06:45:07.443Z,94.91
2018-12-09T06:46:07.433Z,94.81
2018-12-09T06:47:07.421Z,95.33
2018-12-09T06:48:07.411Z,95.42
2018-12-09T06:49:07.399Z,94.91
2018-12-09T06:50:07.389Z,94.09
2018-12-09T06:51:07.377Z,93.06
2018-12-09T06:52:07.367Z,93.78
2018-12-09T06:53:07.358Z,93.88
2018-12-09T06:54:07.345Z,92.60
2018-12-09T06:55:07.333Z,93.43
2018-12-09T06:56:07.323Z,93.84
2018-12-09T06:57:07.313Z,92.29
2018-12-09T06:58:07.303Z,91.47
2018-12-09T06:59:07.294Z,93.73
2018-12-09T07:00:07.282Z,93.73
2018-12-09T07:01:07.269Z,93.84
2018-12-09T07:02:07.357Z,94.25
2018-12-09T07:03:07.247Z,92.60
2018-12-09T07:04:07.237Z,92.19
2018-12-09T07:05:07.224Z,91.37
2018-12-09T07:06:07.217Z,91.57
2018-12-09T07:07:07.204Z,91.47
2018-12-09T07:08:07.193Z,92.71
2018-12-09T07:09:07.184Z,91.06
2018-12-09T07:10:07.172Z,92.19
2018-12-09T07:11:07.160Z,90.34
2018-12-09T07:12:07.151Z,91.78
2018-12-09T07:13:07.139Z,90.85
2018-12-09T07:14:07.129Z,90.96
2018-12-09T07:15:07.116Z,89.31
2018-12-09T07:16:07.105Z,89.58
2018-12-09T07:17:07.094Z,89.06
2018-12-09T07:18:07.087Z,87.83
2018-12-09T07:19:07.074Z,88.65
2018-12-09T07:20:07.065Z,88.75
2018-12-09T07:21:07.054Z,89.68
2018-12-09T07:22:07.045Z,88.14
2018-12-09T07:23:07.031Z,87.93
2018-12-09T07:24:07.018Z,87.52
2018-12-09T07:25:07.009Z,87.83
2018-12-09T07:26:07.000Z,88.14
2018-12-09T07:27:06.988Z,88.14
2018-12-09T07:28:06.977Z,87.52
2018-12-09T07:29:06.964Z,88.24
2018-12-09T07:30:06.956Z,88.14
2018-12-09T07:31:06.942Z,86.90
2018-12-09T07:32:06.933Z,88.10
2018-12-09T07:33:06.923Z,87.79
2018-12-09T07:34:06.911Z,86.96
2018-12-09T07:35:06.898Z,87.58
2018-12-09T07:36:06.890Z,87.38
2018-12-09T07:37:06.877Z,88.82
2018-12-09T07:38:06.867Z,88.45
2018-12-09T07:39:06.858Z,88.03
2018-12-09T07:40:06.852Z,88.86
2018-12-09T07:41:06.834Z,88.34
2018-12-09T07:42:06.822Z,86.08
2018-12-09T07:43:06.814Z,86.04
2018-12-09T07:44:06.802Z,86.56
2018-12-09T07:45:06.793Z,86.96
2018-12-09T07:46:06.779Z,86.45
2018-12-09T07:47:06.769Z,86.04
2018-12-09T07:48:06.760Z,84.29
2018-12-09T07:49:06.747Z,87.28
2018-12-09T07:50:06.741Z,87.48
2018-12-09T07:51:06.729Z,86.76
2018-12-09T07:52:06.715Z,85.53
2018-12-09T07:53:06.703Z,84.19
2018-12-09T07:54:06.693Z,84.87
2018-12-09T07:55:06.683Z,83.74
2018-12-09T07:56:06.670Z,84.87
2018-12-09T07:57:06.659Z,84.87
2018-12-09T07:58:06.647Z,84.15
2018-12-09T07:59:06.638Z,83.74
2018-12-09T08:00:06.630Z,83.85
2018-12-09T08:01:06.620Z,82.71
2018-12-09T08:02:06.681Z,83.53
2018-12-09T08:03:06.595Z,83.23
2018-12-09T08:04:06.582Z,84.56
2018-12-09T08:05:06.573Z,83.02
2018-12-09T08:06:06.563Z,82.71
2018-12-09T08:07:06.552Z,84.66
2018-12-09T08:08:06.541Z,82.40
2018-12-09T08:09:06.530Z,83.33
2018-12-09T08:10:06.518Z,82.40
2018-12-09T08:11:06.507Z,83.94
2018-12-09T08:12:06.496Z,81.89
2018-12-09T08:13:06.486Z,81.48
2018-12-09T08:14:08.023Z,83.85
2018-12-09T08:15:06.463Z,82.09
2018-12-09T08:16:06.454Z,82.92
2018-12-09T08:17:06.444Z,83.43
2018-12-09T08:18:06.431Z,82.09
2018-12-09T08:19:06.418Z,83.23
2018-12-09T08:20:06.409Z,83.85
2018-12-09T08:21:06.396Z,82.40
2018-12-09T08:22:06.387Z,83.53
2018-12-09T08:23:06.375Z,83.02
2018-12-09T08:24:06.364Z,82.92
2018-12-09T08:25:06.355Z,80.56
2018-12-09T08:26:06.342Z,82.92
2018-12-09T08:27:06.334Z,81.79
2018-12-09T08:28:06.321Z,81.79
2018-12-09T08:29:06.310Z,81.58
2018-12-09T08:30:06.302Z,83.02
2018-12-09T08:31:06.289Z,82.40
2018-12-09T08:32:06.276Z,80.10
2018-12-09T08:33:06.265Z,82.57
2018-12-09T08:34:06.254Z,80.76
2018-12-09T08:35:06.245Z,81.89
2018-12-09T08:36:06.234Z,81.89
2018-12-09T08:37:06.223Z,82.30
2018-12-09T08:38:06.214Z,81.28
2018-12-09T08:39:06.201Z,81.28
2018-12-09T08:40:06.189Z,82.09
2018-12-09T08:41:06.179Z,82.09
2018-12-09T08:42:06.169Z,81.68
2018-12-09T08:43:06.156Z,82.09
2018-12-09T08:44:06.148Z,80.52
2018-12-09T08:45:06.140Z,82.06
2018-12-09T08:46:06.122Z,81.95
2018-12-09T08:47:06.113Z,81.44
2018-12-09T08:48:06.101Z,81.54
2018-12-09T08:49:06.093Z,80.21
2018-12-09T08:50:06.079Z,79.97
2018-12-09T08:51:06.069Z,80.68
2018-12-09T08:52:06.059Z,79.45
2018-12-09T08:53:06.047Z,80.48
2018-12-09T08:54:06.036Z,80.48
2018-12-09T08:55:06.026Z,81.20
2018-12-09T08:56:06.017Z,80.99
2018-12-09T08:57:06.003Z,81.65
2018-12-09T08:58:05.994Z,80.17
2018-12-09T08:59:05.985Z,80.48
2018-12-09T09:00:05.973Z,80.68
2018-12-09T09:01:05.962Z,82.12
2018-12-09T09:02:05.948Z,80.48
2018-12-09T09:03:05.937Z,80.68
2018-12-09T09:04:05.926Z,81.20
2018-12-09T09:05:05.918Z,81.30
2018-12-09T09:06:05.908Z,79.76
2018-12-09T09:07:05.896Z,80.38
2018-12-09T09:08:05.883Z,80.38
2018-12-09T09:09:05.873Z,80.58
2018-12-09T09:10:05.861Z,80.99
2018-12-09T09:11:05.850Z,80.58
2018-12-09T09:12:05.841Z,81.10
2018-12-09T09:13:05.829Z,80.27
2018-12-09T09:14:05.820Z,80.89
2018-12-09T09:15:05.810Z,82.02
2018-12-09T09:16:05.798Z,80.99
2018-12-09T09:17:05.785Z,81.10
2018-12-09T09:18:05.844Z,81.10
2018-12-09T09:19:05.763Z,80.99
2018-12-09T09:20:05.754Z,81.40
2018-12-09T09:21:05.743Z,81.51
2018-12-09T09:22:05.732Z,80.48
2018-12-09T09:23:05.720Z,79.66
2018-12-09T09:24:05.710Z,81.10
2018-12-09T09:25:05.699Z,80.17
2018-12-09T09:26:05.690Z,80.27
2018-12-09T09:27:05.674Z,81.10
2018-12-09T09:28:05.666Z,81.40
2018-12-09T09:29:05.655Z,81.71
2018-12-09T09:30:05.645Z,80.07
2018-12-09T09:31:05.635Z,79.76
2018-12-09T09:32:05.620Z,80.38
2018-12-09T09:33:05.613Z,80.58
2018-12-09T09:34:05.606Z,80.89
2018-12-09T09:35:05.590Z,81.20
2018-12-09T09:36:05.580Z,80.38
2018-12-09T09:37:05.567Z,81.10
2018-12-09T09:38:05.557Z,81.61
2018-12-09T09:39:05.547Z,82.64
2018-12-09T09:40:05.615Z,81.81
2018-12-09T09:41:05.522Z,81.61
2018-12-09T09:42:05.512Z,81.81
2018-12-09T09:43:05.501Z,82.84
2018-12-09T09:44:05.491Z,82.94
2018-12-09T09:45:05.478Z,84.89
2018-12-09T09:46:05.468Z,84.22
2018-12-09T09:47:05.458Z,83.80
2018-12-09T09:48:05.444Z,83.60
2018-12-09T09:49:05.438Z,83.60
2018-12-09T09:50:05.424Z,83.39
2018-12-09T09:51:05.411Z,83.08
2018-12-09T09:52:05.406Z,82.78
2018-12-09T09:53:05.391Z,82.67
2018-12-09T09:54:05.380Z,83.08
2018-12-09T09:55:05.369Z,83.50
2018-12-09T09:56:05.361Z,83.08
2018-12-09T09:57:05.345Z,82.37
2018-12-09T09:58:05.337Z,84.83
2018-12-09T09:59:05.327Z,84.11
2018-12-09T10:00:05.313Z,83.19
2018-12-09T10:01:05.303Z,83.70
2018-12-09T10:02:05.290Z,83.91
2018-12-09T10:03:05.281Z,83.39
2018-12-09T10:04:05.270Z,84.63
2018-12-09T10:05:05.261Z,83.70
2018-12-09T10:06:05.250Z,84.32
2018-12-09T10:07:05.239Z,84.32
2018-12-09T10:08:05.227Z,84.11
2018-12-09T10:09:05.218Z,84.63
2018-12-09T10:10:05.205Z,85.20
2018-12-09T10:11:05.195Z,84.52
2018-12-09T10:12:05.183Z,83.91
2018-12-09T10:13:05.173Z,84.22
2018-12-09T10:14:05.161Z,85.14
2018-12-09T10:15:05.152Z,85.35
2018-12-09T10:16:05.139Z,84.32
2018-12-09T10:17:05.128Z,84.52
2018-12-09T10:18:05.116Z,85.00
2018-12-09T10:19:05.112Z,84.01
2018-12-09T10:20:05.096Z,83.80
2018-12-09T10:21:05.086Z,84.01
2018-12-09T10:22:05.075Z,82.88
2018-12-09T10:23:05.064Z,83.66
2018-12-09T10:24:05.052Z,82.64
2018-12-09T10:25:05.043Z,83.25
2018-12-09T10:26:05.030Z,82.84
2018-12-09T10:27:05.020Z,83.45
2018-12-09T10:28:05.008Z,83.87
2018-12-09T10:29:04.998Z,83.15
2018-12-09T10:30:04.987Z,84.07
2018-12-09T10:31:04.974Z,83.56
2018-12-09T10:32:04.963Z,84.58
2018-12-09T10:33:04.955Z,84.49
2018-12-09T10:34:04.943Z,84.28
2018-12-09T10:35:04.930Z,85.71
2018-12-09T10:36:04.922Z,85.51
2018-12-09T10:37:04.910Z,85.62
2018-12-09T10:38:04.903Z,85.62
2018-12-09T10:39:04.886Z,86.48
2018-12-09T10:40:04.879Z,86.27
2018-12-09T10:41:04.866Z,86.88
2018-12-09T10:42:04.855Z,88.12
2018-12-09T10:43:04.844Z,85.86
2018-12-09T10:44:04.940Z,85.45
2018-12-09T10:45:04.822Z,86.88
2018-12-09T10:46:04.809Z,86.37
2018-12-09T10:47:04.800Z,86.99
2018-12-09T10:48:04.789Z,86.78
2018-12-09T10:49:04.778Z,86.27
2018-12-09T10:50:04.769Z,86.16
2018-12-09T10:51:04.759Z,86.27
2018-12-09T10:52:04.745Z,86.48
2018-12-09T10:53:04.734Z,86.78
2018-12-09T10:54:04.724Z,87.09
2018-12-09T10:55:04.715Z,86.78
2018-12-09T10:56:04.701Z,87.29
2018-12-09T10:57:04.692Z,86.58
2018-12-09T10:58:04.682Z,86.06
2018-12-09T10:59:04.669Z,85.96
2018-12-09T11:00:04.657Z,85.35
2018-12-09T11:01:04.646Z,84.93
2018-12-09T11:02:04.636Z,85.14
2018-12-09T11:03:04.625Z,85.14
2018-12-09T11:04:04.615Z,86.06
2018-12-09T11:05:04.617Z,85.65
2018-12-09T11:06:04.592Z,85.24
2018-12-09T11:07:04.582Z,84.83
2018-12-09T11:08:04.569Z,84.83
2018-12-09T11:09:04.563Z,84.63
2018-12-09T11:10:04.546Z,85.04
2018-12-09T11:11:04.536Z,84.73
2018-12-09T11:12:04.525Z,84.73
2018-12-09T11:13:04.514Z,85.04
2018-12-09T11:14:04.505Z,85.86
2018-12-09T11:15:04.494Z,84.52
2018-12-09T11:16:05.261Z,85.20
2018-12-09T11:17:04.474Z,84.63
2018-12-09T11:18:04.462Z,84.89
2018-12-09T11:19:04.450Z,83.56
2018-12-09T11:20:04.439Z,82.84
2018-12-09T11:21:04.429Z,83.05
2018-12-09T11:22:04.418Z,83.15
2018-12-09T11:23:04.407Z,83.15
2018-12-09T11:24:04.397Z,82.74
2018-12-09T11:25:04.386Z,81.81
2018-12-09T11:26:04.373Z,82.33
2018-12-09T11:27:04.363Z,81.61
2018-12-09T11:28:04.352Z,81.61
2018-12-09T11:29:04.342Z,81.71
2018-12-09T11:30:04.327Z,81.71
2018-12-09T11:31:04.319Z,81.20
2018-12-09T11:32:04.305Z,82.53
2018-12-09T11:33:04.296Z,82.74
2018-12-09T11:34:04.286Z,82.23
2018-12-09T11:35:04.274Z,82.64
2018-12-09T11:36:04.262Z,81.30
2018-12-09T11:37:04.252Z,81.51
2018-12-09T11:38:04.241Z,81.10
2018-12-09T11:39:04.233Z,80.72
2018-12-09T11:40:04.218Z,81.95
2018-12-09T11:41:04.209Z,81.65
2018-12-09T11:42:04.203Z,80.93
2018-12-09T11:43:04.186Z,81.65
2018-12-09T11:44:04.175Z,81.95
2018-12-09T11:45:04.166Z,80.93
2018-12-09T11:46:04.151Z,81.65
2018-12-09T11:47:04.142Z,81.65
2018-12-09T11:48:04.131Z,82.09
2018-12-09T11:49:04.124Z,82.09
2018-12-09T11:50:04.111Z,82.00
2018-12-09T11:51:04.102Z,82.30
2018-12-09T11:52:04.086Z,82.78
2018-12-09T11:53:04.078Z,82.30
2018-12-09T11:54:04.069Z,83.53
2018-12-09T11:55:04.054Z,83.33
2018-12-09T11:56:04.045Z,83.16
2018-12-09T11:57:04.034Z,83.47
2018-12-09T11:58:04.021Z,84.71
2018-12-09T11:59:04.011Z,83.57
2018-12-09T12:00:03.998Z,84.50
2018-12-09T12:01:03.990Z,84.19
2018-12-09T12:02:03.979Z,84.39
2018-12-09T12:03:03.971Z,84.71
2018-12-09T12:04:03.955Z,85.01
2018-12-09T12:05:03.944Z,85.32
2018-12-09T12:06:03.934Z,85.11
2018-12-09T12:07:03.923Z,85.01
2018-12-09T12:08:03.913Z,84.97
2018-12-09T12:09:03.902Z,83.85
2018-12-09T12:10:03.889Z,83.85
2018-12-09T12:11:03.879Z,84.09
2018-12-09T12:12:03.868Z,84.66
2018-12-09T12:13:03.859Z,84.19
2018-12-09T12:14:03.847Z,84.50
2018-12-09T12:15:03.834Z,85.32
2018-12-09T12:16:03.825Z,85.73
2018-12-09T12:17:03.814Z,85.32
2018-12-09T12:18:03.804Z,85.32
2018-12-09T12:19:03.791Z,85.43
2018-12-09T12:20:03.782Z,85.11
2018-12-09T12:21:03.769Z,85.01
2018-12-09T12:22:03.759Z,85.46
2018-12-09T12:23:03.749Z,85.16
2018-12-09T12:24:03.739Z,85.67
2018-12-09T12:25:03.725Z,85.16
2018-12-09T12:26:03.714Z,85.77
2018-12-09T12:27:03.703Z,85.67
2018-12-09T12:28:03.698Z,85.77
2018-12-09T12:29:03.683Z,85.36
2018-12-09T12:30:03.671Z,85.16
2018-12-09T12:31:03.663Z,85.67
2018-12-09T12:32:03.649Z,86.18
2018-12-09T12:33:03.639Z,85.11
2018-12-09T12:34:03.628Z,84.19
2018-12-09T12:35:03.617Z,83.99
2018-12-09T12:36:03.606Z,84.19
2018-12-09T12:37:03.594Z,84.09
2018-12-09T12:38:03.586Z,84.50
2018-12-09T12:39:03.577Z,85.01
2018-12-09T12:40:03.560Z,84.81
2018-12-09T12:41:03.550Z,84.60
2018-12-09T12:42:03.540Z,84.09
2018-12-09T12:43:03.527Z,83.88
2018-12-09T12:44:03.519Z,84.29
2018-12-09T12:45:03.506Z,84.50
2018-12-09T12:46:03.496Z,84.09
2018-12-09T12:47:03.485Z,84.71
2018-12-09T12:48:03.473Z,83.67
2018-12-09T12:49:03.464Z,83.06
2018-12-09T12:50:03.453Z,83.78
2018-12-09T12:51:03.443Z,84.39
2018-12-09T12:52:03.436Z,84.09